Observation data for Aspermont on 01/19/2019      Previous  Date  Next       Current Mesonet Observations  Soil Data  Daily Summary Page  Observations in Plain Language
KASR 190600Z 33019G24KT 05/01 A2997 RMK A01 T00490008  RH  076%=      5-min Rain = 0
KASR 190605Z 33019G27KT 05/00 A2997 RMK A01 T00480004  RH  074%=      5-min Rain = 0
KASR 190610Z 33020G28KT 05/00 A2998 RMK A01 T00470003  RH  074%=      5-min Rain = 0
KASR 190615Z 33022G29KT 05/00 A2999 RMK A01 T00470000  RH  073%=      5-min Rain = 0
KASR 190620Z 33020G26KT 05/M00 A2999 RMK A01 T00471001  RH  072%=      5-min Rain = 0
KASR 190625Z 33021G27KT 05/M00 A30 RMK A01 T00471003  RH  071%=      5-min Rain = 0
KASR 190630Z 34022G29KT 05/M00 A30 RMK A01 T00461004  RH  071%=      5-min Rain = 0
KASR 190635Z 33024G33KT 05/M01 A30 RMK A01 T00451006  RH  070%=      5-min Rain = 0
KASR 190640Z 33023G31KT 04/M01 A30 RMK A01 T00431007  RH  071%=      5-min Rain = 0
KASR 190645Z 33025G31KT 04/M01 A3001 RMK A01 T00421007  RH  071%=      5-min Rain = 0
KASR 190650Z 34023G31KT 04/M01 A3001 RMK A01 T00421008  RH  071%=      5-min Rain = 0
KASR 190655Z 34023G30KT 04/M01 A3001 RMK A01 T00431010  RH  069%=      5-min Rain = 0
KASR 190700Z 34019G26KT 04/M01 A3001 RMK A01 T00431009  RH  070%=      5-min Rain = 0
KASR 190705Z 33016KT 04/M01 A3002 RMK A01 T00421009  RH  070%=      5-min Rain = 0
KASR 190710Z 33023G32KT 04/M01 A3002 RMK A01 T00421010  RH  070%=      5-min Rain = 0
KASR 190715Z 34022G31KT 04/M01 A3002 RMK A01 T00361008  RH  074%=      5-min Rain = 0
KASR 190720Z 34019G24KT 03/M00 A3003 RMK A01 T00311002  RH  080%=      5-min Rain = 0
KASR 190725Z 33015G21KT 03/00 A3004 RMK A01 T00300001  RH  082%=      5-min Rain = 0
KASR 190730Z 33021G31KT 03/M00 A3004 RMK A01 T00301001  RH  081%=      5-min Rain = 0
KASR 190735Z 33023G30KT 03/M01 A3004 RMK A01 T00291005  RH  079%=      5-min Rain = 0
KASR 190740Z 33018G26KT 03/M00 A3005 RMK A01 T00281004  RH  080%=      5-min Rain = 0
KASR 190745Z 33020G26KT 03/M01 A3005 RMK A01 T00291006  RH  079%=      5-min Rain = 0
KASR 190750Z 33024G32KT 03/M01 A3005 RMK A01 T00281007  RH  078%=      5-min Rain = 0
KASR 190755Z 34023G32KT 03/M01 A3005 RMK A01 T00271008  RH  079%=      5-min Rain = 0
KASR 190800Z 33019G26KT 03/M01 A3006 RMK A01 T00261005  RH  081%=      5-min Rain = 0
KASR 190805Z 33020G30KT 02/M00 A3006 RMK A01 T00241003  RH  083%=      5-min Rain = 0
KASR 190810Z 33020G26KT 02/M00 A3006 RMK A01 T00231002  RH  084%=      5-min Rain = 0
KASR 190815Z 33019G26KT 02/M00 A3007 RMK A01 T00221001  RH  085%=      5-min Rain = 0
KASR 190820Z 33020G26KT 02/M00 A3007 RMK A01 T00221001  RH  086%=      5-min Rain = 0
KASR 190825Z 33019G26KT 02/00 A3007 RMK A01 T001800-0  RH  089%=      5-min Rain = 0
KASR 190830Z 33017KT 02/00 A3008 RMK A01 T00160001  RH  091%=      5-min Rain = 0
KASR 190835Z 33016G22KT 02/00 A3008 RMK A01 T00160002  RH  092%=      5-min Rain = 0
KASR 190840Z 33016G22KT 02/00 A3008 RMK A01 T00160001  RH  091%=      5-min Rain = 0
KASR 190845Z 33016G21KT 02/00 A3008 RMK A01 T00160002  RH  091%=      5-min Rain = 0
KASR 190850Z 33017G23KT 02/00 A3008 RMK A01 T00160000  RH  090%=      5-min Rain = 0
KASR 190855Z 33015G20KT 02/00 A3008 RMK A01 T00160000  RH  091%=      5-min Rain = 0
KASR 190900Z 32011KT 02/00 A3009 RMK A01 T00160001  RH  091%=      5-min Rain = 0
KASR 190905Z 32012KT 02/00 A3009 RMK A01 T00170001  RH  091%=      5-min Rain = 0
KASR 190910Z 32012G18KT 02/00 A3009 RMK A01 T00180001  RH  090%=      5-min Rain = 0
KASR 190915Z 32014KT 02/00 A3009 RMK A01 T001900-0  RH  088%=      5-min Rain = 0
KASR 190920Z 32015KT 02/M00 A3009 RMK A01 T00201001  RH  087%=      5-min Rain = 0
KASR 190925Z 32016KT 02/M00 A3009 RMK A01 T00211002  RH  086%=      5-min Rain = 0
KASR 190930Z 32014KT 02/M00 A3009 RMK A01 T00221002  RH  085%=      5-min Rain = 0
KASR 190935Z 32013KT 02/M00 A301 RMK A01 T00221002  RH  085%=      5-min Rain = 0
KASR 190940Z 31012KT 02/M00 A301 RMK A01 T00231001  RH  085%=      5-min Rain = 0
KASR 190945Z 32012KT 02/M00 A301 RMK A01 T00231001  RH  085%=      5-min Rain = 0
KASR 190950Z 32014G19KT 02/M00 A301 RMK A01 T00241002  RH  084%=      5-min Rain = 0
KASR 190955Z 31014G20KT 03/M00 A301 RMK A01 T00251002  RH  083%=      5-min Rain = 0
KASR 191000Z 32015G21KT 03/M00 A301 RMK A01 T00261004  RH  081%=      5-min Rain = 0
KASR 191005Z 32014G22KT 03/M01 A3011 RMK A01 T00271005  RH  080%=      5-min Rain = 0
KASR 191010Z 32016G21KT 03/M01 A301 RMK A01 T00281007  RH  079%=      5-min Rain = 0
KASR 191015Z 32016G21KT 03/M01 A301 RMK A01 T00281008  RH  078%=      5-min Rain = 0
KASR 191020Z 33016G24KT 03/M01 A3011 RMK A01 T00291008  RH  078%=      5-min Rain = 0
KASR 191025Z 33017G24KT 03/M01 A3011 RMK A01 T00301008  RH  077%=      5-min Rain = 0
KASR 191030Z 33017G22KT 03/M01 A3011 RMK A01 T00311008  RH  076%=      5-min Rain = 0
KASR 191035Z 33018G24KT 03/M01 A3011 RMK A01 T00311008  RH  076%=      5-min Rain = 0
KASR 191040Z 33017G23KT 03/M01 A3012 RMK A01 T00311008  RH  076%=      5-min Rain = 0
KASR 191045Z 33018G23KT 03/M01 A3012 RMK A01 T00311007  RH  077%=      5-min Rain = 0
KASR 191050Z 33016G22KT 03/M01 A3012 RMK A01 T00311007  RH  077%=      5-min Rain = 0
KASR 191055Z 32017KT 03/M01 A3013 RMK A01 T00321007  RH  076%=      5-min Rain = 0
KASR 191100Z 32017G23KT 03/M01 A3013 RMK A01 T00321010  RH  075%=      5-min Rain = 0
KASR 191105Z 32020G28KT 03/M01 A3014 RMK A01 T00321014  RH  073%=      5-min Rain = 0
KASR 191110Z 33018G25KT 03/M02 A3014 RMK A01 T00291018  RH  072%=      5-min Rain = 0
KASR 191115Z 32019G26KT 03/M02 A3014 RMK A01 T00271021  RH  071%=      5-min Rain = 0
KASR 191120Z 32020G27KT 03/M02 A3014 RMK A01 T00261023  RH  071%=      5-min Rain = 0
KASR 191125Z 33018G23KT 02/M03 A3015 RMK A01 T00241025  RH  071%=      5-min Rain = 0
KASR 191130Z 33020G30KT 02/M03 A3015 RMK A01 T00231027  RH  070%=      5-min Rain = 0
KASR 191135Z 33019G24KT 02/M03 A3016 RMK A01 T00211029  RH  070%=      5-min Rain = 0
KASR 191140Z 33021G27KT 02/M03 A3016 RMK A01 T00201032  RH  069%=      5-min Rain = 0
KASR 191145Z 33019G26KT 02/M04 A3017 RMK A01 T00191036  RH  068%=      5-min Rain = 0
KASR 191150Z 34018G26KT 02/M04 A3017 RMK A01 T00171038  RH  068%=      5-min Rain = 0
KASR 191155Z 34020G26KT 02/M04 A3018 RMK A01 T00161040  RH  067%=      5-min Rain = 0
KASR 191200Z 33018G23KT 01/M04 A3018 RMK A01 T00141040  RH  068%=      5-min Rain = 0
KASR 191205Z 33020G26KT 01/M04 A3018 RMK A01 T00131040  RH  069%=      5-min Rain = 0
KASR 191210Z 33018KT 01/M04 A3019 RMK A01 T00121040  RH  069%=      5-min Rain = 0
KASR 191215Z 33016KT 01/M04 A3019 RMK A01 T00111040  RH  070%=      5-min Rain = 0
KASR 191220Z 33016KT 01/M04 A3019 RMK A01 T00101039  RH  071%=      5-min Rain = 0
KASR 191225Z 33016KT 01/M04 A3019 RMK A01 T00101038  RH  071%=      5-min Rain = 0
KASR 191230Z 33016G22KT 01/M04 A302 RMK A01 T00101038  RH  071%=      5-min Rain = 0
KASR 191235Z 33014G19KT 01/M04 A302 RMK A01 T00101037  RH  072%=      5-min Rain = 0
KASR 191240Z 33012KT 01/M04 A3021 RMK A01 T00091036  RH  072%=      5-min Rain = 0
KASR 191245Z 32011KT 01/M04 A3021 RMK A01 T00091036  RH  073%=      5-min Rain = 0
KASR 191250Z 32014G20KT 01/M04 A3021 RMK A01 T00091036  RH  073%=      5-min Rain = 0
KASR 191255Z 33016G21KT 01/M04 A3021 RMK A01 T00101039  RH  071%=      5-min Rain = 0
KASR 191300Z 33017G22KT 01/M04 A3021 RMK A01 T00091042  RH  070%=      5-min Rain = 0
KASR 191305Z 33017G24KT 01/M04 A3022 RMK A01 T00071044  RH  069%=      5-min Rain = 0
KASR 191310Z 33017G26KT 01/M05 A3022 RMK A01 T00071046  RH  068%=      5-min Rain = 0
KASR 191315Z 33017KT 01/M05 A3022 RMK A01 T00061047  RH  068%=      5-min Rain = 0
KASR 191320Z 33014KT 00/M05 A3022 RMK A01 T00041047  RH  069%=      5-min Rain = 0
KASR 191325Z 33014KT 00/M05 A3023 RMK A01 T00021047  RH  070%=      5-min Rain = 0
KASR 191330Z 33013KT 00/M05 A3023 RMK A01 T00011047  RH  071%=      5-min Rain = 0
KASR 191335Z 33012KT 00/05 A3023 RMK A01 T00-00-47  RH  071%=      5-min Rain = 0
KASR 191340Z 33013KT 00/05 A3023 RMK A01 T00-00-47  RH  072%=      5-min Rain = 0
KASR 191345Z 33014KT 00/M05 A3023 RMK A01 T00011047  RH  071%=      5-min Rain = 0
KASR 191350Z 33014G19KT 00/M05 A3023 RMK A01 T00011047  RH  071%=      5-min Rain = 0
KASR 191355Z 33014KT 00/M05 A3023 RMK A01 T00011047  RH  071%=      5-min Rain = 0
KASR 191400Z 33014G19KT 00/M05 A3023 RMK A01 T00021046  RH  071%=      5-min Rain = 0
KASR 191405Z 33014G20KT 00/M05 A3024 RMK A01 T00031046  RH  071%=      5-min Rain = 0
KASR 191410Z 33014KT 00/M05 A3024 RMK A01 T00031046  RH  071%=      5-min Rain = 0
KASR 191415Z 33014KT 00/M05 A3025 RMK A01 T00031045  RH  071%=      5-min Rain = 0
KASR 191420Z 33013KT 00/M04 A3025 RMK A01 T00041044  RH  071%=      5-min Rain = 0
KASR 191425Z 33013G18KT 01/M04 A3025 RMK A01 T00051044  RH  070%=      5-min Rain = 0
KASR 191430Z 33014G20KT 01/M04 A3025 RMK A01 T00071043  RH  070%=      5-min Rain = 0
KASR 191435Z 33015G20KT 01/M04 A3026 RMK A01 T00091043  RH  069%=      5-min Rain = 0
KASR 191440Z 33013KT 01/M04 A3026 RMK A01 T00101043  RH  068%=      5-min Rain = 0
KASR 191445Z 33014G20KT 01/M04 A3026 RMK A01 T00121042  RH  068%=      5-min Rain = 0
KASR 191450Z 33015G21KT 01/M04 A3027 RMK A01 T00131042  RH  067%=      5-min Rain = 0
KASR 191455Z 33014G19KT 02/M04 A3027 RMK A01 T00151041  RH  067%=      5-min Rain = 0
KASR 191500Z 33016G21KT 02/M04 A3028 RMK A01 T00161041  RH  066%=      5-min Rain = 0
KASR 191505Z 33018G23KT 02/M04 A3028 RMK A01 T00161042  RH  066%=      5-min Rain = 0
KASR 191510Z 33015G20KT 02/M04 A3028 RMK A01 T00181039  RH  066%=      5-min Rain = 0
KASR 191515Z 33018G24KT 02/M04 A3029 RMK A01 T00181040  RH  066%=      5-min Rain = 0
KASR 191520Z 33018KT 02/M04 A3029 RMK A01 T00191038  RH  067%=      5-min Rain = 0
KASR 191525Z 33016G21KT 02/M04 A303 RMK A01 T00211037  RH  066%=      5-min Rain = 0
KASR 191530Z 33016KT 02/M04 A303 RMK A01 T00231036  RH  066%=      5-min Rain = 0
KASR 191535Z 33015G20KT 02/M04 A303 RMK A01 T00241036  RH  065%=      5-min Rain = 0
KASR 191540Z 33016G29KT 03/M04 A3031 RMK A01 T00261035  RH  065%=      5-min Rain = 0
KASR 191545Z 33019G25KT 03/M04 A3031 RMK A01 T00271036  RH  064%=      5-min Rain = 0
KASR 191550Z 33019G26KT 03/M04 A3031 RMK A01 T00281038  RH  062%=      5-min Rain = 0
KASR 191555Z 33018G27KT 03/M04 A3031 RMK A01 T00301037  RH  062%=      5-min Rain = 0
KASR 191600Z 33020G26KT 03/M04 A3031 RMK A01 T00301038  RH  062%=      5-min Rain = 0
KASR 191605Z 33018G24KT 03/M04 A3032 RMK A01 T00331037  RH  061%=      5-min Rain = 0
KASR 191610Z 34020G25KT 03/M04 A3032 RMK A01 T00331039  RH  060%=      5-min Rain = 0
KASR 191615Z 34022G27KT 03/M04 A3032 RMK A01 T00331041  RH  059%=      5-min Rain = 0
KASR 191620Z 34020G25KT 03/M04 A3032 RMK A01 T00341040  RH  059%=      5-min Rain = 0
KASR 191625Z 33019G24KT 04/M04 A3033 RMK A01 T00381039  RH  058%=      5-min Rain = 0
KASR 191630Z 33021G27KT 04/M04 A3033 RMK A01 T00381040  RH  057%=      5-min Rain = 0
KASR 191635Z 33022G30KT 04/M04 A3033 RMK A01 T00391042  RH  056%=      5-min Rain = 0
KASR 191640Z 33021G28KT 04/M04 A3033 RMK A01 T00401042  RH  056%=      5-min Rain = 0
KASR 191645Z 33020G28KT 04/M04 A3033 RMK A01 T00411041  RH  055%=      5-min Rain = 0
KASR 191650Z 34023KT 04/M04 A3033 RMK A01 T00411044  RH  054%=      5-min Rain = 0
KASR 191655Z 34020G26KT 04/M04 A3033 RMK A01 T00421043  RH  055%=      5-min Rain = 0
KASR 191700Z 33020G26KT 05/M04 A3033 RMK A01 T00451044  RH  053%=      5-min Rain = 0
KASR 191705Z 34019G28KT 05/M05 A3033 RMK A01 T00451045  RH  052%=      5-min Rain = 0
KASR 191710Z 34019G24KT 05/M05 A3033 RMK A01 T00471045  RH  052%=      5-min Rain = 0
KASR 191715Z 34019G25KT 05/M05 A3033 RMK A01 T00471046  RH  051%=      5-min Rain = 0
KASR 191720Z 34019G25KT 05/M04 A3033 RMK A01 T00501044  RH  051%=      5-min Rain = 0
KASR 191725Z 35019G24KT 05/M04 A3033 RMK A01 T00481044  RH  052%=      5-min Rain = 0
KASR 191730Z 34018G24KT 05/M04 A3033 RMK A01 T00491041  RH  053%=      5-min Rain = 0
KASR 191735Z 33018G27KT 05/M04 A3033 RMK A01 T00521039  RH  052%=      5-min Rain = 0
KASR 191740Z 33018G25KT 05/M04 A3033 RMK A01 T00511040  RH  052%=      5-min Rain = 0
KASR 191745Z 33019G25KT 05/M04 A3033 RMK A01 T00531038  RH  052%=      5-min Rain = 0
KASR 191750Z 34019G25KT 05/M04 A3033 RMK A01 T00541040  RH  051%=      5-min Rain = 0
KASR 191755Z 33018G23KT 06/M04 A3033 RMK A01 T00571038  RH  051%=      5-min Rain = 0
KASR 191800Z 33018G26KT 06/M04 A3033 RMK A01 T00601038  RH  050%=      5-min Rain = 0
KASR 191805Z 34019G24KT 06/M05 A3032 RMK A01 T00581045  RH  048%=      5-min Rain = 0
KASR 191810Z 34019G27KT 06/M04 A3032 RMK A01 T00571044  RH  049%=      5-min Rain = 0
KASR 191815Z 33017G22KT 06/M04 A3032 RMK A01 T00591042  RH  049%=      5-min Rain = 0
KASR 191820Z 33017G24KT 06/M04 A3032 RMK A01 T00601038  RH  050%=      5-min Rain = 0
KASR 191825Z 33019KT 06/M04 A3031 RMK A01 T00621042  RH  048%=      5-min Rain = 0
KASR 191830Z 33020G26KT 06/M04 A3031 RMK A01 T00641041  RH  047%=      5-min Rain = 0
KASR 191835Z 34018G27KT 06/M04 A3031 RMK A01 T00641042  RH  047%=      5-min Rain = 0
KASR 191840Z 33016G25KT 07/M04 A303 RMK A01 T00671038  RH  047%=      5-min Rain = 0
KASR 191845Z 34016G22KT 07/M04 A303 RMK A01 T00691037  RH  047%=      5-min Rain = 0
KASR 191850Z 33017G26KT 07/M03 A3029 RMK A01 T00701034  RH  048%=      5-min Rain = 0
KASR 191855Z 34020G28KT 07/M04 A3029 RMK A01 T00681035  RH  048%=      5-min Rain = 0
KASR 191900Z 34021G27KT 07/M03 A3029 RMK A01 T00691033  RH  049%=      5-min Rain = 0
KASR 191905Z 34019G25KT 07/M03 A3029 RMK A01 T00701031  RH  049%=      5-min Rain = 0
KASR 191910Z 33021G26KT 07/M03 A3028 RMK A01 T00741030  RH  048%=      5-min Rain = 0
KASR 191915Z 33020G25KT 07/M03 A3028 RMK A01 T00731029  RH  049%=      5-min Rain = 0
KASR 191920Z 33022G27KT 08/M03 A3028 RMK A01 T00761031  RH  047%=      5-min Rain = 0
KASR 191925Z 33020G28KT 08/M03 A3028 RMK A01 T00771030  RH  047%=      5-min Rain = 0
KASR 191930Z 33021G29KT 08/M03 A3028 RMK A01 T00751034  RH  047%=      5-min Rain = 0
KASR 191935Z 34021G26KT 08/M03 A3028 RMK A01 T00751034  RH  046%=      5-min Rain = 0
KASR 191940Z 34018G24KT 08/M03 A3028 RMK A01 T00771033  RH  046%=      5-min Rain = 0
KASR 191945Z 33019G27KT 08/M03 A3028 RMK A01 T00781032  RH  046%=      5-min Rain = 0
KASR 191950Z 34020G26KT 08/M03 A3027 RMK A01 T00781032  RH  046%=      5-min Rain = 0
KASR 191955Z 34020G27KT 08/M03 A3027 RMK A01 T00801031  RH  046%=      5-min Rain = 0
KASR 192000Z 33021G27KT 08/M03 A3027 RMK A01 T00811032  RH  045%=      5-min Rain = 0
KASR 192005Z 34020G26KT 08/M03 A3027 RMK A01 T00811030  RH  046%=      5-min Rain = 0
KASR 192010Z 34021G29KT 08/M03 A3027 RMK A01 T00791033  RH  045%=      5-min Rain = 0
KASR 192015Z 34020G28KT 08/M03 A3026 RMK A01 T00811031  RH  046%=      5-min Rain = 0
KASR 192020Z 34019G25KT 08/M03 A3026 RMK A01 T00831030  RH  045%=      5-min Rain = 0
KASR 192025Z 33022G28KT 08/M03 A3026 RMK A01 T00831031  RH  045%=      5-min Rain = 0
KASR 192030Z 33021G30KT 08/M03 A3026 RMK A01 T00831032  RH  045%=      5-min Rain = 0
KASR 192035Z 33020G26KT 09/M03 A3026 RMK A01 T00861030  RH  044%=      5-min Rain = 0
KASR 192040Z 33019G24KT 09/M03 A3026 RMK A01 T00851032  RH  044%=      5-min Rain = 0
KASR 192045Z 34020KT 09/M03 A3026 RMK A01 T00861031  RH  044%=      5-min Rain = 0
KASR 192050Z 33017G22KT 09/M03 A3026 RMK A01 T00861030  RH  044%=      5-min Rain = 0
KASR 192055Z 33016KT 09/M03 A3026 RMK A01 T00871029  RH  044%=      5-min Rain = 0
KASR 192100Z 34017G23KT 09/M03 A3026 RMK A01 T00891028  RH  044%=      5-min Rain = 0
KASR 192105Z 33019KT 09/M03 A3026 RMK A01 T00901030  RH  043%=      5-min Rain = 0
KASR 192110Z 32017G22KT 09/M03 A3027 RMK A01 T00901032  RH  043%=      5-min Rain = 0
KASR 192115Z 33018G27KT 09/M03 A3027 RMK A01 T00921030  RH  043%=      5-min Rain = 0
KASR 192120Z 33019G25KT 09/M03 A3027 RMK A01 T00911032  RH  042%=      5-min Rain = 0
KASR 192125Z 33020G26KT 09/M03 A3027 RMK A01 T00901032  RH  042%=      5-min Rain = 0
KASR 192130Z 33018G24KT 09/M03 A3027 RMK A01 T00921031  RH  042%=      5-min Rain = 0
KASR 192135Z 33017KT 09/M03 A3027 RMK A01 T00921031  RH  042%=      5-min Rain = 0
KASR 192140Z 34017G22KT 09/M03 A3027 RMK A01 T00931031  RH  042%=      5-min Rain = 0
KASR 192145Z 34017G23KT 09/M03 A3027 RMK A01 T00941031  RH  042%=      5-min Rain = 0
KASR 192150Z 34016G21KT 09/M03 A3027 RMK A01 T00921032  RH  042%=      5-min Rain = 0
KASR 192155Z 34015G22KT 09/M03 A3027 RMK A01 T00931031  RH  042%=      5-min Rain = 0
KASR 192200Z 33018G24KT 09/M03 A3027 RMK A01 T00931031  RH  042%=      5-min Rain = 0
KASR 192205Z 32018G23KT 09/M03 A3027 RMK A01 T00931032  RH  042%=      5-min Rain = 0
KASR 192210Z 33015G20KT 10/M03 A3027 RMK A01 T00951029  RH  042%=      5-min Rain = 0
KASR 192215Z 33016KT 10/M03 A3028 RMK A01 T00951030  RH  042%=      5-min Rain = 0
KASR 192220Z 34015KT 09/M03 A3028 RMK A01 T00941031  RH  042%=      5-min Rain = 0
KASR 192225Z 34015G20KT 10/M03 A3028 RMK A01 T00951030  RH  042%=      5-min Rain = 0
KASR 192230Z 35016G21KT 09/M03 A3027 RMK A01 T00931031  RH  042%=      5-min Rain = 0
KASR 192235Z 34016G21KT 09/M03 A3027 RMK A01 T00931032  RH  042%=      5-min Rain = 0
KASR 192240Z 34015KT 09/M03 A3027 RMK A01 T00921033  RH  042%=      5-min Rain = 0
KASR 192245Z 34016G21KT 09/M03 A3028 RMK A01 T00921032  RH  042%=      5-min Rain = 0
KASR 192250Z 34014G21KT 09/M03 A3028 RMK A01 T00921031  RH  042%=      5-min Rain = 0
KASR 192255Z 34016KT 09/M03 A3027 RMK A01 T00901034  RH  042%=      5-min Rain = 0
KASR 192300Z 34014G19KT 09/M03 A3028 RMK A01 T00891034  RH  042%=      5-min Rain = 0
KASR 192305Z 34015KT 09/M03 A3028 RMK A01 T00891034  RH  042%=      5-min Rain = 0
KASR 192310Z 34014KT 09/M03 A3028 RMK A01 T00881034  RH  043%=      5-min Rain = 0
KASR 192315Z 34013G18KT 09/M03 A3028 RMK A01 T00871033  RH  043%=      5-min Rain = 0
KASR 192320Z 35014KT 09/M03 A3028 RMK A01 T00861034  RH  043%=      5-min Rain = 0
KASR 192325Z 34012G18KT 09/M03 A3028 RMK A01 T00851032  RH  044%=      5-min Rain = 0
KASR 192330Z 34011G16KT 08/M03 A3028 RMK A01 T00831031  RH  045%=      5-min Rain = 0
KASR 192335Z 34011KT 08/M03 A3028 RMK A01 T00821030  RH  046%=      5-min Rain = 0
KASR 192340Z 35010KT 08/M03 A3028 RMK A01 T00801031  RH  046%=      5-min Rain = 0
KASR 192345Z 35009KT 08/M03 A3028 RMK A01 T00781030  RH  047%=      5-min Rain = 0
KASR 192350Z 34010KT 08/M03 A3028 RMK A01 T00761032  RH  047%=      5-min Rain = 0
KASR 192355Z 34010KT 07/M03 A3028 RMK A01 T00741032  RH  048%=      5-min Rain = 0
KASR 200000Z 34008KT 07/M03 A3028 RMK A01 T00711032  RH  048%=      5-min Rain = 0
KASR 200005Z 35007KT 07/M03 A3028 RMK A01 T00671032  RH  050%=      5-min Rain = 0
KASR 200010Z 36007KT 06/M03 A3028 RMK A01 T00621031  RH  052%=      5-min Rain = 0
KASR 200015Z 35008KT 06/M03 A3028 RMK A01 T00621031  RH  052%=      5-min Rain = 0
KASR 200020Z 35007KT 06/M03 A3028 RMK A01 T00581030  RH  053%=      5-min Rain = 0
KASR 200025Z 00007KT 06/M03 A3028 RMK A01 T00561031  RH  054%=      5-min Rain = 0
KASR 200030Z 00007KT 05/M03 A3028 RMK A01 T00541031  RH  055%=      5-min Rain = 0
KASR 200035Z 00007KT 05/M03 A3028 RMK A01 T00521031  RH  055%=      5-min Rain = 0
KASR 200040Z 00007KT 05/M03 A3028 RMK A01 T00511032  RH  056%=      5-min Rain = 0
KASR 200045Z 00006KT 05/M03 A3029 RMK A01 T00471032  RH  057%=      5-min Rain = 0
KASR 200050Z 36005KT 04/M03 A3029 RMK A01 T00431033  RH  059%=      5-min Rain = 0
KASR 200055Z 36005KT 04/M03 A3029 RMK A01 T00411033  RH  059%=      5-min Rain = 0
KASR 200100Z 00005KT 04/M03 A3029 RMK A01 T00411033  RH  059%=      5-min Rain = 0
KASR 200105Z 00005KT 04/M03 A3029 RMK A01 T00401033  RH  059%=      5-min Rain = 0
KASR 200110Z 00004KT 04/M03 A3029 RMK A01 T00391034  RH  060%=      5-min Rain = 0
KASR 200115Z 01002KT 04/M04 A3029 RMK A01 T00381035  RH  060%=      5-min Rain = 0
KASR 200120Z 03002KT 03/M04 A3029 RMK A01 T00331037  RH  061%=      5-min Rain = 0
KASR 200125Z 01002KT 03/M04 A303 RMK A01 T00291036  RH  063%=      5-min Rain = 0
KASR 200130Z 01003KT 03/M04 A303 RMK A01 T00291036  RH  063%=      5-min Rain = 0
KASR 200135Z 02004KT 03/M04 A303 RMK A01 T00291036  RH  063%=      5-min Rain = 0
KASR 200140Z 05005KT 03/M04 A3031 RMK A01 T00291036  RH  063%=      5-min Rain = 0
KASR 200145Z 06006KT 03/M04 A3031 RMK A01 T00271037  RH  064%=      5-min Rain = 0
KASR 200150Z 06007KT 03/M04 A3031 RMK A01 T00271036  RH  064%=      5-min Rain = 0
KASR 200155Z 06006KT 03/M04 A3031 RMK A01 T00261038  RH  064%=      5-min Rain = 0
KASR 200200Z 05004KT 03/M04 A3032 RMK A01 T00251040  RH  063%=      5-min Rain = 0
KASR 200205Z 05004KT 02/M04 A3032 RMK A01 T00231041  RH  063%=      5-min Rain = 0
KASR 200210Z 05005KT 02/M04 A3032 RMK A01 T00211042  RH  064%=      5-min Rain = 0
KASR 200215Z 05006KT 02/M04 A3031 RMK A01 T00181044  RH  064%=      5-min Rain = 0
KASR 200220Z 06006KT 02/M05 A3031 RMK A01 T00181046  RH  063%=      5-min Rain = 0
KASR 200225Z 06006KT 02/M05 A3031 RMK A01 T00201048  RH  062%=      5-min Rain = 0
KASR 200230Z 07005KT 02/M05 A3031 RMK A01 T00191049  RH  061%=      5-min Rain = 0
KASR 200235Z 07004KT 02/M05 A3031 RMK A01 T00171050  RH  061%=      5-min Rain = 0
KASR 200240Z 09004KT 02/M05 A3031 RMK A01 T00151051  RH  062%=      5-min Rain = 0
KASR 200245Z 10005KT 01/M05 A303 RMK A01 T00121051  RH  063%=      5-min Rain = 0
KASR 200250Z 10005KT 01/M05 A303 RMK A01 T00101053  RH  064%=      5-min Rain = 0
KASR 200255Z 08005KT 01/M05 A303 RMK A01 T00091053  RH  064%=      5-min Rain = 0
KASR 200300Z 06007KT 01/M05 A303 RMK A01 T00081053  RH  065%=      5-min Rain = 0
KASR 200305Z 06006KT 01/M05 A3031 RMK A01 T00081053  RH  065%=      5-min Rain = 0
KASR 200310Z 06005KT 01/M05 A3032 RMK A01 T00081054  RH  064%=      5-min Rain = 0
KASR 200315Z 06006KT 01/M06 A3032 RMK A01 T00071056  RH  064%=      5-min Rain = 0
KASR 200320Z 05006KT 01/M06 A3032 RMK A01 T00061057  RH  064%=      5-min Rain = 0
KASR 200325Z 05005KT 01/M06 A3032 RMK A01 T00051058  RH  064%=      5-min Rain = 0
KASR 200330Z 04003KT 00/M06 A3032 RMK A01 T00041057  RH  064%=      5-min Rain = 0
KASR 200335Z 03002KT 00/M06 A3033 RMK A01 T00031056  RH  065%=      5-min Rain = 0
KASR 200340Z 35000KT 00/06 A3033 RMK A01 T00000-57  RH  066%=      5-min Rain = 0
KASR 200345Z 25001KT M00/M06 A3032 RMK A01 T10041056  RH  069%=      5-min Rain = 0
KASR 200350Z 19001KT M00/M06 A3033 RMK A01 T10031055  RH  069%=      5-min Rain = 0
KASR 200355Z 16002KT M00/M06 A3033 RMK A01 T10041055  RH  069%=      5-min Rain = 0
KASR 200400Z 09002KT M01/M06 A3033 RMK A01 T10081060  RH  069%=      5-min Rain = 0
KASR 200405Z 07003KT M01/M06 A3033 RMK A01 T10071062  RH  067%=      5-min Rain = 0
KASR 200410Z 06002KT M01/M06 A3033 RMK A01 T10081063  RH  067%=      5-min Rain = 0
KASR 200415Z 07002KT M01/M06 A3034 RMK A01 T10111063  RH  068%=      5-min Rain = 0
KASR 200420Z 06003KT M01/M06 A3034 RMK A01 T10111064  RH  068%=      5-min Rain = 0
KASR 200425Z 06003KT M01/M07 A3034 RMK A01 T10081067  RH  065%=      5-min Rain = 0
KASR 200430Z 07003KT M01/M07 A3033 RMK A01 T10081068  RH  065%=      5-min Rain = 0
KASR 200435Z 08003KT M01/M07 A3033 RMK A01 T10101068  RH  065%=      5-min Rain = 0
KASR 200440Z 09004KT M01/M07 A3033 RMK A01 T10111068  RH  066%=      5-min Rain = 0
KASR 200445Z 11003KT M01/M07 A3034 RMK A01 T10091067  RH  066%=      5-min Rain = 0
KASR 200450Z 11003KT M01/M06 A3034 RMK A01 T10091061  RH  068%=      5-min Rain = 0
KASR 200455Z 10004KT M01/M07 A3034 RMK A01 T10141066  RH  069%=      5-min Rain = 0
KASR 200500Z 11004KT M02/M07 A3034 RMK A01 T10161067  RH  069%=      5-min Rain = 0
KASR 200505Z 11005KT M01/M07 A3033 RMK A01 T10141067  RH  068%=      5-min Rain = 0
KASR 200510Z 09004KT M01/M07 A3034 RMK A01 T10131069  RH  067%=      5-min Rain = 0
KASR 200515Z 09003KT M01/M07 A3035 RMK A01 T10121069  RH  066%=      5-min Rain = 0
KASR 200520Z 10004KT M01/M07 A3034 RMK A01 T10121067  RH  067%=      5-min Rain = 0
KASR 200525Z 09004KT M01/M07 A3034 RMK A01 T10131067  RH  067%=      5-min Rain = 0
KASR 200530Z 08003KT M01/M07 A3034 RMK A01 T10131067  RH  068%=      5-min Rain = 0
KASR 200535Z 10003KT M02/M07 A3034 RMK A01 T10151067  RH  069%=      5-min Rain = 0
KASR 200540Z 13003KT M02/M07 A3034 RMK A01 T10151066  RH  069%=      5-min Rain = 0
KASR 200545Z 12002KT M02/M06 A3034 RMK A01 T10171063  RH  072%=      5-min Rain = 0
KASR 200550Z 09002KT M02/M06 A3034 RMK A01 T10221063  RH  074%=      5-min Rain = 0
KASR 200555Z 09003KT M02/M07 A3035 RMK A01 T10241068  RH  073%=      5-min Rain = 0

Page generated in 0.0125 seconds.